createdAt,value
2022-10-24T00:01:13.631Z,81.85
2022-10-24T00:03:40.408Z,81.41
2022-10-24T00:06:08.901Z,81.06
2022-10-24T00:08:36.451Z,81.37
2022-10-24T00:11:07.644Z,82.21
2022-10-24T00:13:34.339Z,82.25
2022-10-24T00:16:01.420Z,82.34
2022-10-24T00:18:28.053Z,83.90
2022-10-24T00:20:54.726Z,84.37
2022-10-24T00:23:21.391Z,83.54
2022-10-24T00:25:48.059Z,83.33
2022-10-24T00:28:17.567Z,83.32
2022-10-24T00:30:44.255Z,83.86
2022-10-24T00:33:10.937Z,85.33
2022-10-24T00:35:37.630Z,85.23
2022-10-24T00:38:04.277Z,85.71
2022-10-24T00:40:31.010Z,86.89
2022-10-24T00:42:57.774Z,87.65
2022-10-24T00:45:56.875Z,86.86
2022-10-24T00:48:32.538Z,86.20
2022-10-24T00:51:02.415Z,85.18
2022-10-24T00:53:30.063Z,85.31
2022-10-24T00:55:58.639Z,85.71
2022-10-24T00:58:28.153Z,86.23
2022-10-24T01:00:55.561Z,86.74
2022-10-24T01:03:22.654Z,86.08
2022-10-24T01:06:18.095Z,86.42
2022-10-24T01:09:07.228Z,86.27
2022-10-24T01:11:42.833Z,86.91
2022-10-24T01:14:20.303Z,86.72
2022-10-24T01:17:05.395Z,86.31
2022-10-24T01:19:50.402Z,85.94
2022-10-24T01:22:25.391Z,85.46
2022-10-24T01:25:13.921Z,85.64
2022-10-24T01:28:02.087Z,85.72
2022-10-24T01:30:40.723Z,86.93
2022-10-24T01:33:16.086Z,86.72
2022-10-24T01:35:58.197Z,85.80
2022-10-24T01:38:27.748Z,86.26
2022-10-24T01:41:01.085Z,85.79
2022-10-24T01:43:38.302Z,85.90
2022-10-24T01:46:09.176Z,85.76
2022-10-24T01:48:39.432Z,85.23
2022-10-24T01:51:07.503Z,85.72
2022-10-24T01:53:35.542Z,85.27
2022-10-24T01:56:02.719Z,84.43
2022-10-24T01:58:29.431Z,84.66
2022-10-24T02:01:02.968Z,84.09
2022-10-24T02:03:39.408Z,83.01
2022-10-24T02:06:16.985Z,82.92
2022-10-24T02:08:46.307Z,82.03
2022-10-24T02:11:13.023Z,81.76
2022-10-24T02:14:03.343Z,81.46
2022-10-24T02:16:30.193Z,81.89
2022-10-24T02:18:57.538Z,81.50
2022-10-24T02:21:43.810Z,81.18
2022-10-24T02:24:17.502Z,81.07
2022-10-24T02:26:53.229Z,81.04
2022-10-24T02:29:34.380Z,80.53
2022-10-24T02:32:09.658Z,80.26
2022-10-24T02:34:37.887Z,79.86
2022-10-24T02:37:05.470Z,79.62
2022-10-24T02:39:34.312Z,80.13
2022-10-24T02:42:01.878Z,79.92
2022-10-24T02:44:29.669Z,79.85
2022-10-24T02:46:58.673Z,79.56
2022-10-24T02:49:25.317Z,79.43
2022-10-24T02:51:52.358Z,80.14
2022-10-24T02:54:19.221Z,80.77
2022-10-24T02:56:50.979Z,80.49
2022-10-24T02:59:17.720Z,80.34
2022-10-24T03:01:44.699Z,80.46
2022-10-24T03:04:11.632Z,80.35
2022-10-24T03:06:38.318Z,80.37
2022-10-24T03:09:05.038Z,79.99
2022-10-24T03:11:31.725Z,79.19
2022-10-24T03:13:58.423Z,79.41
2022-10-24T03:16:25.923Z,79.99
2022-10-24T03:18:52.557Z,79.70
2022-10-24T03:21:19.224Z,79.87
2022-10-24T03:23:45.953Z,79.65
2022-10-24T03:26:12.749Z,79.71
2022-10-24T03:28:39.422Z,79.51
2022-10-24T03:31:06.252Z,79.24
2022-10-24T03:33:33.193Z,78.83
2022-10-24T03:36:00.093Z,78.87
2022-10-24T03:38:27.178Z,79.04
2022-10-24T03:40:53.832Z,78.49
2022-10-24T03:43:20.504Z,78.60
2022-10-24T03:45:47.218Z,78.91
2022-10-24T03:48:14.089Z,78.59
2022-10-24T03:50:40.939Z,78.65
2022-10-24T03:53:07.639Z,78.81
2022-10-24T03:55:34.910Z,78.22
2022-10-24T03:58:01.653Z,78.51
2022-10-24T04:00:29.274Z,78.40
2022-10-24T04:02:56.390Z,78.33
2022-10-24T04:05:23.071Z,78.42
2022-10-24T04:07:49.932Z,78.65
2022-10-24T04:10:16.602Z,78.57
2022-10-24T04:12:43.296Z,78.28
2022-10-24T04:15:10.535Z,78.58
2022-10-24T04:17:37.358Z,78.21
2022-10-24T04:20:04.815Z,78.32
2022-10-24T04:22:31.572Z,78.46
2022-10-24T04:24:58.248Z,78.18
2022-10-24T04:27:25.210Z,78.16
2022-10-24T04:29:52.008Z,78.31
2022-10-24T04:32:18.719Z,78.21
2022-10-24T04:34:45.407Z,78.28
2022-10-24T04:37:12.130Z,78.16
2022-10-24T04:39:38.956Z,77.89
2022-10-24T04:42:05.611Z,77.92
2022-10-24T04:44:32.349Z,78.13
2022-10-24T04:46:59.016Z,77.96
2022-10-24T04:49:25.668Z,77.92
2022-10-24T04:51:52.297Z,78.06
2022-10-24T04:54:18.953Z,78.11
2022-10-24T04:56:45.611Z,77.99
2022-10-24T04:59:12.395Z,77.83
2022-10-24T05:01:39.437Z,78.05
2022-10-24T05:04:06.241Z,78.26
2022-10-24T05:06:32.913Z,78.02
2022-10-24T05:08:59.590Z,78.26
2022-10-24T05:11:26.277Z,78.22
2022-10-24T05:13:52.987Z,78.41
2022-10-24T05:16:19.821Z,78.80
2022-10-24T05:18:46.503Z,78.87
2022-10-24T05:21:13.321Z,78.95
2022-10-24T05:23:39.991Z,79.06
2022-10-24T05:26:06.707Z,79.22
2022-10-24T05:28:33.433Z,79.41
2022-10-24T05:31:00.576Z,79.53
2022-10-24T05:33:27.221Z,79.34
2022-10-24T05:35:54.632Z,79.33
2022-10-24T05:38:21.450Z,79.60
2022-10-24T05:40:49.397Z,79.30
2022-10-24T05:43:16.493Z,79.00
2022-10-24T05:45:43.843Z,79.33
2022-10-24T05:48:10.795Z,79.26
2022-10-24T05:50:37.472Z,79.08
2022-10-24T05:53:04.169Z,79.53
2022-10-24T05:55:31.488Z,79.22
2022-10-24T05:57:58.156Z,79.16
2022-10-24T06:00:24.850Z,79.27
2022-10-24T06:02:51.684Z,79.21
2022-10-24T06:05:18.404Z,78.97
2022-10-24T06:07:45.726Z,78.90
2022-10-24T06:10:13.374Z,78.71
2022-10-24T06:12:40.042Z,78.87
2022-10-24T06:15:08.367Z,78.63
2022-10-24T06:17:35.429Z,78.88
2022-10-24T06:20:02.181Z,79.18
2022-10-24T06:22:29.947Z,78.90
2022-10-24T06:24:56.905Z,78.75
2022-10-24T06:27:23.879Z,78.73
2022-10-24T06:29:50.593Z,79.09
2022-10-24T06:32:17.312Z,79.07
2022-10-24T06:34:44.018Z,78.99
2022-10-24T06:37:10.800Z,79.11
2022-10-24T06:39:37.480Z,79.04
2022-10-24T06:42:04.249Z,79.57
2022-10-24T06:44:31.209Z,79.51
2022-10-24T06:46:57.925Z,79.56
2022-10-24T06:49:24.719Z,79.74
2022-10-24T06:51:52.661Z,79.64
2022-10-24T06:54:19.474Z,79.80
2022-10-24T06:56:46.299Z,79.96
2022-10-24T06:59:17.370Z,80.06
2022-10-24T07:01:45.177Z,80.13
2022-10-24T07:04:12.205Z,80.95
2022-10-24T07:06:38.964Z,81.46
2022-10-24T07:09:07.007Z,81.54
2022-10-24T07:11:35.149Z,81.14
2022-10-24T07:14:04.519Z,81.30
2022-10-24T07:16:33.716Z,82.86
2022-10-24T07:19:00.436Z,82.75
2022-10-24T07:21:29.989Z,82.45
2022-10-24T07:23:57.117Z,82.22
2022-10-24T07:26:25.775Z,82.98
2022-10-24T07:28:54.908Z,83.17
2022-10-24T07:31:24.212Z,83.42
2022-10-24T07:33:52.684Z,82.95
2022-10-24T07:36:21.523Z,84.80
2022-10-24T07:38:48.849Z,84.19
2022-10-24T07:41:15.957Z,84.68
2022-10-24T07:43:42.612Z,84.95
2022-10-24T07:46:11.985Z,84.54
2022-10-24T07:48:41.650Z,85.42
2022-10-24T07:51:18.100Z,86.28
2022-10-24T07:53:45.409Z,87.06
2022-10-24T07:56:15.708Z,87.13
2022-10-24T07:58:43.954Z,87.69
2022-10-24T08:01:22.082Z,87.23
2022-10-24T08:03:49.136Z,88.15
2022-10-24T08:06:18.411Z,89.04
2022-10-24T08:08:45.686Z,89.90
2022-10-24T08:11:17.351Z,89.23
2022-10-24T08:13:44.352Z,88.87
2022-10-24T08:16:13.199Z,88.26
2022-10-24T08:18:40.112Z,88.46
2022-10-24T08:21:09.846Z,89.91
2022-10-24T08:23:38.407Z,89.85
2022-10-24T08:26:06.439Z,89.90
2022-10-24T08:28:33.829Z,89.44
2022-10-24T08:31:05.769Z,89.88
2022-10-24T08:33:33.181Z,89.81
2022-10-24T08:36:01.950Z,90.04
2022-10-24T08:38:29.387Z,89.99
2022-10-24T08:40:57.138Z,90.25
2022-10-24T08:43:24.330Z,90.08
2022-10-24T08:46:23.398Z,90.07
2022-10-24T08:48:58.086Z,89.26
2022-10-24T08:51:42.662Z,88.73
2022-10-24T08:54:31.842Z,88.52
2022-10-24T08:57:00.042Z,87.88
2022-10-24T08:59:29.321Z,86.88
2022-10-24T09:02:24.064Z,86.78
2022-10-24T09:05:02.366Z,85.94
2022-10-24T09:07:29.160Z,86.00
2022-10-24T09:10:12.927Z,85.86
2022-10-24T09:12:40.236Z,85.64
2022-10-24T09:15:17.267Z,84.90
2022-10-24T09:17:44.303Z,84.00
2022-10-24T09:20:29.178Z,83.51
2022-10-24T09:22:59.113Z,83.11
2022-10-24T09:25:31.381Z,83.72
2022-10-24T09:28:01.862Z,83.35
2022-10-24T09:30:31.623Z,82.97
2022-10-24T09:33:05.328Z,83.55
2022-10-24T09:35:35.483Z,83.38
2022-10-24T09:38:25.617Z,83.26
2022-10-24T09:40:54.123Z,83.22
2022-10-24T09:43:32.624Z,82.68
2022-10-24T09:46:21.209Z,83.25
2022-10-24T09:49:02.025Z,82.58
2022-10-24T09:51:41.381Z,82.48
2022-10-24T09:54:20.176Z,82.74
2022-10-24T09:56:53.564Z,82.07
2022-10-24T09:59:44.394Z,80.95
2022-10-24T10:02:11.325Z,81.78
2022-10-24T10:04:38.708Z,81.77
2022-10-24T10:07:12.577Z,80.73
2022-10-24T10:09:51.557Z,81.52
2022-10-24T10:12:36.260Z,81.21
2022-10-24T10:15:19.305Z,79.89
2022-10-24T10:17:51.160Z,80.17
2022-10-24T10:20:28.422Z,80.59
2022-10-24T10:22:55.292Z,80.80
2022-10-24T10:25:30.741Z,80.21
2022-10-24T10:28:01.061Z,80.20
2022-10-24T10:30:29.742Z,79.69
2022-10-24T10:33:19.806Z,80.02
2022-10-24T10:35:58.607Z,80.01
2022-10-24T10:38:46.994Z,79.48
2022-10-24T10:41:25.631Z,79.52
2022-10-24T10:43:55.470Z,79.05
2022-10-24T10:46:32.595Z,79.35
2022-10-24T10:48:59.305Z,79.08
2022-10-24T10:51:44.676Z,78.94
2022-10-24T10:54:20.506Z,78.88
2022-10-24T10:57:37.682Z,79.14
2022-10-24T11:00:11.216Z,78.43
2022-10-24T11:03:05.685Z,78.43
2022-10-24T11:05:54.243Z,78.32
2022-10-24T11:08:20.853Z,77.25
2022-10-24T11:10:54.590Z,77.50
2022-10-24T11:13:25.551Z,77.80
2022-10-24T11:15:54.808Z,77.93
2022-10-24T11:18:30.383Z,77.68
2022-10-24T11:21:04.313Z,76.70
2022-10-24T11:23:36.370Z,76.72
2022-10-24T11:26:11.287Z,77.03
2022-10-24T11:28:53.153Z,76.69
2022-10-24T11:31:30.769Z,76.19
2022-10-24T11:34:00.313Z,76.58
2022-10-24T11:36:46.993Z,76.58
2022-10-24T11:39:41.149Z,76.48
2022-10-24T11:42:51.727Z,77.05
2022-10-24T11:45:20.843Z,77.23
2022-10-24T11:48:14.826Z,76.25
2022-10-24T11:51:22.056Z,75.52
2022-10-24T11:54:04.971Z,75.71
2022-10-24T11:56:42.629Z,75.84
2022-10-24T11:59:27.517Z,75.60
2022-10-24T12:01:57.451Z,74.71
2022-10-24T12:05:20.173Z,75.63
2022-10-24T12:08:12.018Z,74.94
2022-10-24T12:10:41.841Z,73.64
2022-10-24T12:13:35.295Z,73.80
2022-10-24T12:16:23.709Z,73.58
2022-10-24T12:19:01.761Z,74.04
2022-10-24T12:21:36.378Z,73.84
2022-10-24T12:24:04.408Z,73.59
2022-10-24T12:26:32.891Z,73.86
2022-10-24T12:29:06.194Z,73.12
2022-10-24T12:31:34.674Z,72.70
2022-10-24T12:34:19.479Z,73.12
2022-10-24T12:37:05.015Z,73.18
2022-10-24T12:40:01.270Z,72.73
2022-10-24T12:42:27.908Z,72.89
2022-10-24T12:45:00.755Z,72.34
2022-10-24T12:47:35.231Z,72.03
2022-10-24T12:50:23.734Z,72.43
2022-10-24T12:53:02.027Z,71.83
2022-10-24T12:55:39.722Z,71.68
2022-10-24T12:58:35.505Z,72.05
2022-10-24T13:01:20.921Z,71.80
2022-10-24T13:03:50.574Z,70.37
2022-10-24T13:06:32.699Z,69.62
2022-10-24T13:09:17.930Z,69.56
2022-10-24T13:12:13.556Z,69.37
2022-10-24T13:15:02.143Z,69.31
2022-10-24T13:17:46.670Z,69.18
2022-10-24T13:20:15.669Z,68.74
2022-10-24T13:22:43.339Z,69.03
2022-10-24T13:25:29.731Z,67.98
2022-10-24T13:28:22.571Z,68.12
2022-10-24T13:30:59.557Z,68.59
2022-10-24T13:33:45.632Z,67.76
2022-10-24T13:36:17.818Z,67.29
2022-10-24T13:38:53.852Z,67.51
2022-10-24T13:41:42.478Z,67.85
2022-10-24T13:44:12.111Z,67.23
2022-10-24T13:46:46.952Z,66.13
2022-10-24T13:49:21.093Z,66.59
2022-10-24T13:51:51.423Z,66.72
2022-10-24T13:54:25.287Z,66.27
2022-10-24T13:56:52.537Z,65.95
2022-10-24T13:59:39.586Z,66.40
2022-10-24T14:02:20.073Z,66.02
2022-10-24T14:04:48.433Z,66.42
2022-10-24T14:07:20.526Z,65.98
2022-10-24T14:12:24.904Z,66.50
2022-10-24T14:14:52.061Z,66.62
2022-10-24T14:17:31.683Z,66.41
2022-10-24T14:20:30.873Z,66.67
2022-10-24T14:22:57.844Z,66.01
2022-10-24T14:25:35.474Z,66.34
2022-10-24T14:28:16.131Z,66.52
2022-10-24T14:30:56.635Z,66.24
2022-10-24T14:33:25.426Z,66.15
2022-10-24T14:35:56.718Z,66.20
2022-10-24T14:38:26.247Z,66.75
2022-10-24T14:41:06.413Z,66.25
2022-10-24T14:43:35.636Z,66.00
2022-10-24T14:46:19.424Z,66.91
2022-10-24T14:48:49.052Z,66.78
2022-10-24T14:51:21.759Z,67.05
2022-10-24T14:53:50.373Z,67.14
2022-10-24T14:56:31.576Z,67.40
2022-10-24T14:59:00.333Z,67.08
2022-10-24T15:01:27.171Z,67.15
2022-10-24T15:03:55.058Z,67.31
2022-10-24T15:06:27.131Z,67.46
2022-10-24T15:09:17.899Z,67.42
2022-10-24T15:11:47.440Z,67.83
2022-10-24T15:14:35.921Z,67.59
2022-10-24T15:17:17.838Z,68.16
2022-10-24T15:19:46.210Z,67.96
2022-10-24T15:22:27.172Z,67.89
2022-10-24T15:24:55.489Z,68.05
2022-10-24T15:27:28.921Z,68.32
2022-10-24T15:29:56.394Z,68.53
2022-10-24T15:32:24.415Z,68.47
2022-10-24T15:34:54.376Z,69.05
2022-10-24T15:37:23.948Z,68.62
2022-10-24T15:39:51.024Z,68.63
2022-10-24T15:42:20.128Z,69.30
2022-10-24T15:44:49.361Z,69.33
2022-10-24T15:47:16.063Z,69.49
2022-10-24T15:49:42.789Z,69.75
2022-10-24T15:52:13.588Z,69.90
2022-10-24T15:54:42.124Z,69.47
2022-10-24T15:57:13.220Z,69.79
2022-10-24T15:59:40.144Z,70.30
2022-10-24T16:02:14.907Z,70.12
2022-10-24T16:04:42.570Z,70.14
2022-10-24T16:07:10.227Z,70.10
2022-10-24T16:09:37.059Z,69.56
2022-10-24T16:12:04.136Z,69.94
2022-10-24T16:14:33.906Z,69.63
2022-10-24T16:17:00.757Z,69.66
2022-10-24T16:19:27.490Z,69.63
2022-10-24T16:21:58.667Z,69.50
2022-10-24T16:24:26.568Z,69.26
2022-10-24T16:26:53.498Z,69.36
2022-10-24T16:29:20.375Z,69.67
2022-10-24T16:31:49.225Z,69.62
2022-10-24T16:34:15.919Z,69.56
2022-10-24T16:36:42.627Z,69.20
2022-10-24T16:39:09.644Z,69.86
2022-10-24T16:41:36.397Z,69.58
2022-10-24T16:44:03.911Z,69.13
2022-10-24T16:46:30.903Z,69.11
2022-10-24T16:48:57.676Z,69.39
2022-10-24T16:51:27.743Z,69.14
2022-10-24T16:53:55.130Z,68.70
2022-10-24T16:56:21.981Z,68.92
2022-10-24T16:58:48.712Z,68.86
2022-10-24T17:01:16.746Z,69.50
2022-10-24T17:03:45.217Z,69.43
2022-10-24T17:06:12.352Z,69.24
2022-10-24T17:08:39.511Z,69.60
2022-10-24T17:11:20.196Z,69.16
2022-10-24T17:13:53.685Z,69.53
2022-10-24T17:16:21.225Z,69.40
2022-10-24T17:19:05.181Z,69.05
2022-10-24T17:21:35.759Z,69.07
2022-10-24T17:24:02.635Z,68.69
2022-10-24T17:26:29.521Z,68.89
2022-10-24T17:28:56.428Z,68.75
2022-10-24T17:31:23.362Z,68.51
2022-10-24T17:33:50.315Z,68.68
2022-10-24T17:36:23.509Z,69.41
2022-10-24T17:39:10.015Z,69.64
2022-10-24T17:41:40.838Z,69.78
2022-10-24T17:44:16.185Z,69.75
2022-10-24T17:46:44.033Z,69.59
2022-10-24T17:49:16.509Z,69.33
2022-10-24T17:51:47.343Z,69.23
2022-10-24T17:54:14.994Z,69.22
2022-10-24T17:56:42.446Z,69.55
2022-10-24T17:59:09.647Z,69.01
2022-10-24T18:01:36.999Z,69.39
2022-10-24T18:04:04.250Z,69.87
2022-10-24T18:06:31.060Z,69.95
2022-10-24T18:08:57.817Z,69.74
2022-10-24T18:11:24.554Z,69.61
2022-10-24T18:13:51.327Z,69.90
2022-10-24T18:16:19.302Z,70.20
2022-10-24T18:18:46.707Z,69.92
2022-10-24T18:21:21.535Z,69.70
2022-10-24T18:23:48.920Z,70.29
2022-10-24T18:26:19.059Z,69.96
2022-10-24T18:28:48.772Z,69.78
2022-10-24T18:31:17.696Z,70.00
2022-10-24T18:33:44.913Z,70.20
2022-10-24T18:36:16.633Z,70.47
2022-10-24T18:38:43.975Z,69.85
2022-10-24T18:41:32.111Z,70.41
2022-10-24T18:44:00.663Z,70.38
2022-10-24T18:46:29.379Z,69.81
2022-10-24T18:48:56.405Z,70.41
2022-10-24T18:51:39.215Z,70.59
2022-10-24T18:54:09.410Z,70.36
2022-10-24T18:56:36.464Z,70.30
2022-10-24T18:59:21.788Z,70.13
2022-10-24T19:02:25.799Z,70.07
2022-10-24T19:05:14.174Z,70.47
2022-10-24T19:07:41.411Z,70.42
2022-10-24T19:10:14.920Z,70.00
2022-10-24T19:12:41.896Z,69.90
2022-10-24T19:15:09.606Z,70.21
2022-10-24T19:17:36.442Z,69.85
2022-10-24T19:20:03.371Z,70.18
2022-10-24T19:22:31.117Z,70.13
2022-10-24T19:24:58.117Z,70.69
2022-10-24T19:27:25.915Z,70.51
2022-10-24T19:29:53.631Z,70.25
2022-10-24T19:32:20.371Z,70.43
2022-10-24T19:34:47.363Z,70.22
2022-10-24T19:37:15.915Z,70.40
2022-10-24T19:39:44.628Z,70.39
2022-10-24T19:42:12.556Z,70.32
2022-10-24T19:44:44.082Z,69.91
2022-10-24T19:47:10.981Z,70.33
2022-10-24T19:49:37.827Z,70.34
2022-10-24T19:52:04.682Z,70.50
2022-10-24T19:54:31.564Z,70.77
2022-10-24T19:57:00.768Z,71.01
2022-10-24T19:59:33.144Z,70.88
2022-10-24T20:02:00.981Z,70.98
2022-10-24T20:04:28.018Z,70.88
2022-10-24T20:06:54.878Z,70.85
2022-10-24T20:09:22.200Z,70.92
2022-10-24T20:11:49.307Z,71.69
2022-10-24T20:14:16.174Z,71.48
2022-10-24T20:16:43.737Z,71.30
2022-10-24T20:19:10.664Z,70.99
2022-10-24T20:21:37.758Z,70.88
2022-10-24T20:24:04.751Z,70.86
2022-10-24T20:26:31.565Z,71.54
2022-10-24T20:28:59.468Z,71.26
2022-10-24T20:31:29.156Z,71.42
2022-10-24T20:34:05.235Z,71.30
2022-10-24T20:36:34.669Z,71.51
2022-10-24T20:39:01.629Z,71.44
2022-10-24T20:41:29.187Z,71.56
2022-10-24T20:43:56.292Z,71.56
2022-10-24T20:46:23.345Z,71.51
2022-10-24T20:48:50.056Z,71.72
2022-10-24T20:51:19.660Z,71.41
2022-10-24T20:53:46.854Z,71.30
2022-10-24T20:56:17.005Z,71.17
2022-10-24T20:58:46.429Z,71.93
2022-10-24T21:01:24.994Z,72.38
2022-10-24T21:03:53.515Z,72.32
2022-10-24T21:06:29.014Z,72.18
2022-10-24T21:08:58.229Z,71.91
2022-10-24T21:11:28.417Z,72.79
2022-10-24T21:14:05.082Z,72.95
2022-10-24T21:16:32.245Z,72.83
2022-10-24T21:19:00.306Z,72.81
2022-10-24T21:21:29.531Z,72.68
2022-10-24T21:24:04.493Z,72.71
2022-10-24T21:26:34.974Z,72.60
2022-10-24T21:29:09.199Z,72.76
2022-10-24T21:31:49.514Z,72.87
2022-10-24T21:34:16.586Z,72.44
2022-10-24T21:36:43.288Z,72.11
2022-10-24T21:39:16.105Z,72.42
2022-10-24T21:41:43.358Z,72.50
2022-10-24T21:44:10.773Z,72.46
2022-10-24T21:46:37.455Z,72.44
2022-10-24T21:49:05.718Z,72.36
2022-10-24T21:51:37.169Z,72.46
2022-10-24T21:54:25.159Z,72.64
2022-10-24T21:56:53.034Z,73.33
2022-10-24T21:59:22.236Z,73.62
2022-10-24T22:01:52.101Z,73.42
2022-10-24T22:04:19.399Z,73.88
2022-10-24T22:06:46.228Z,73.64
2022-10-24T22:09:17.661Z,73.86
2022-10-24T22:11:49.585Z,73.87
2022-10-24T22:14:18.064Z,73.61
2022-10-24T22:16:45.283Z,73.69
2022-10-24T22:19:12.937Z,73.37
2022-10-24T22:21:47.509Z,73.36
2022-10-24T22:24:17.053Z,73.48
2022-10-24T22:26:43.972Z,73.27
2022-10-24T22:29:14.529Z,73.47
2022-10-24T22:31:41.565Z,73.90
2022-10-24T22:34:08.650Z,74.01
2022-10-24T22:36:47.383Z,74.09
2022-10-24T22:39:20.226Z,74.30
2022-10-24T22:41:48.048Z,74.32
2022-10-24T22:44:16.539Z,74.77
2022-10-24T22:46:43.183Z,74.77
2022-10-24T22:49:22.006Z,75.20
2022-10-24T22:51:48.828Z,74.86
2022-10-24T22:54:19.326Z,74.19
2022-10-24T22:56:46.402Z,74.03
2022-10-24T22:59:13.282Z,73.99
2022-10-24T23:01:56.016Z,73.45
2022-10-24T23:04:55.028Z,73.60
2022-10-24T23:07:46.534Z,73.33
2022-10-24T23:10:19.136Z,73.31
2022-10-24T23:12:46.514Z,73.41
2022-10-24T23:15:18.311Z,72.86
2022-10-24T23:17:46.052Z,72.70
2022-10-24T23:20:27.666Z,73.31
2022-10-24T23:23:08.921Z,73.17
2022-10-24T23:25:52.877Z,73.03
2022-10-24T23:28:24.505Z,73.03
2022-10-24T23:30:51.354Z,73.22
2022-10-24T23:33:23.930Z,73.30
2022-10-24T23:35:53.274Z,73.31
2022-10-24T23:38:20.175Z,73.29
2022-10-24T23:40:47.225Z,73.42
2022-10-24T23:43:16.241Z,73.44
2022-10-24T23:46:00.014Z,73.56
2022-10-24T23:48:57.173Z,73.30
2022-10-24T23:51:46.725Z,73.38
2022-10-24T23:54:13.680Z,73.53
2022-10-24T23:56:40.771Z,73.66
2022-10-24T23:59:07.484Z,73.90
